Time;durP1;ratioP1;P1;durP2;ratioP2;P2;SDS_P1;SDS_P2;PMS_P1;PMS_P2;Temp;Humidity;BMP_temperature;BMP_pressure;BME280_temperature;BME280_humidity;BME280_pressure;Samples;Min_cycle;Max_cycle;Signal;HPM_P1;HPM_P2
2023/04/17 00:03:30;;;;;;;6.17;5.67;;;;;;;12.94;63.55;98300.47;8279910;28;20481;-71
2023/04/17 00:07:37;;;;;;;6.20;5.60;;;;;;;12.78;63.74;98301.19;8280306;28;20333;-71
2023/04/17 00:11:40;;;;;;;5.80;5.17;;;;;;;12.87;63.54;98307.69;8280209;28;20385;-71
2023/04/17 00:15:43;;;;;;;5.80;5.30;;;;;;;12.79;63.17;98294.25;8280072;28;20545;-71
2023/04/17 00:19:46;;;;;;;6.00;5.50;;;;;;;12.79;63.39;98313.25;8280194;28;20294;-70
2023/04/17 00:23:50;;;;;;;5.27;4.87;;;;;;;12.87;63.18;98295.56;8280043;28;20235;-71
2023/04/17 00:27:53;;;;;;;5.80;5.40;;;;;;;12.79;63.53;98294.25;8279874;28;20251;-71
2023/04/17 00:31:55;;;;;;;5.93;5.50;;;;;;;12.79;63.47;98292.47;8279956;28;20430;-71
2023/04/17 00:35:58;;;;;;;6.03;5.53;;;;;;;12.58;63.77;98280.53;8280080;28;20259;-71
2023/04/17 00:40:02;;;;;;;5.53;5.13;;;;;;;12.78;63.63;98292.56;8279999;28;20239;-71
2023/04/17 00:44:05;;;;;;;5.73;5.30;;;;;;;12.55;63.62;98270.28;8279955;28;20414;-71
2023/04/17 00:48:09;;;;;;;5.80;5.40;;;;;;;12.66;63.54;98291.38;8279748;28;20224;-70
2023/04/17 00:52:12;;;;;;;4.90;4.50;;;;;;;12.75;63.54;98285.75;8283085;28;20252;-71
2023/04/17 00:56:16;;;;;;;5.00;4.60;;;;;;;12.54;63.17;98243.44;8285471;28;20228;-71
2023/04/17 01:00:19;;;;;;;5.23;4.83;;;;;;;12.78;63.35;98279.56;8284800;28;20243;-71
2023/04/17 01:04:22;;;;;;;5.03;4.63;;;;;;;12.63;63.08;98268.16;8285129;28;20493;-71
2023/04/17 01:08:25;;;;;;;4.90;4.50;;;;;;;12.78;63.17;98287.38;8284917;28;20235;-71
2023/04/17 01:12:30;;;;;;;5.10;4.70;;;;;;;12.73;62.75;98284.16;8284920;28;20242;-70
2023/04/17 01:16:34;;;;;;;4.80;4.43;;;;;;;12.74;62.94;98284.06;8284892;28;20229;-71
2023/04/17 01:20:39;;;;;;;4.73;4.43;;;;;;;12.74;62.92;98284.06;8284888;28;20230;-71
2023/04/17 01:24:44;;;;;;;4.77;4.37;;;;;;;12.77;62.88;98280.47;8285069;28;20227;-71
2023/04/17 01:28:51;;;;;;;4.80;4.40;;;;;;;12.79;62.63;98279.47;8285237;28;20300;-71
2023/04/17 01:32:54;;;;;;;5.20;4.80;;;;;;;12.75;62.64;98275.34;8284817;28;20228;-71
2023/04/17 01:36:57;;;;;;;4.50;4.20;;;;;;;12.70;63.07;98282.56;8284858;28;20235;-71
2023/04/17 01:41:08;;;;;;;4.97;4.57;;;;;;;12.46;62.71;98246.41;8284578;28;20223;-71
2023/04/17 01:45:11;;;;;;;4.77;4.47;;;;;;;12.45;63.72;98277.66;8284315;28;20232;-70
2023/04/17 01:49:14;;;;;;;5.30;4.70;;;;;;;12.67;62.73;98278.31;8283923;28;20232;-70
2023/04/17 01:53:17;;;;;;;4.93;4.53;;;;;;;12.62;63.10;98282.91;8283757;28;20422;-71
2023/04/17 01:57:21;;;;;;;4.77;4.20;;;;;;;12.60;62.93;98284.72;8283368;28;20230;-71
2023/04/17 02:01:24;;;;;;;4.87;4.47;;;;;;;12.54;63.33;98286.78;8283421;28;20239;-70
2023/04/17 02:05:27;;;;;;;5.00;4.60;;;;;;;12.58;62.70;98278.75;8283517;28;20240;-71
2023/04/17 02:09:33;;;;;;;5.47;4.47;;;;;;;12.66;62.84;98281.84;8283421;28;20417;-70
2023/04/17 02:13:37;;;;;;;5.17;4.77;;;;;;;12.58;62.68;98283.94;8283269;28;20242;-71
2023/04/17 02:17:40;;;;;;;5.10;4.70;;;;;;;12.59;62.39;98288.25;8283153;28;20529;-71
2023/04/17 02:21:43;;;;;;;5.87;4.70;;;;;;;12.58;63.11;98286.53;8283167;28;20227;-71
2023/04/17 02:25:46;;;;;;;4.30;3.90;;;;;;;12.67;62.95;98286.13;8282823;28;20253;-71
2023/04/17 02:29:50;;;;;;;4.60;4.20;;;;;;;12.61;62.87;98288.19;8282830;28;20259;-71
2023/04/17 02:33:53;;;;;;;4.70;4.33;;;;;;;12.57;62.99;98290.06;8282615;28;20229;-71
2023/04/17 02:37:56;;;;;;;4.47;4.00;;;;;;;12.61;63.08;98289.00;8282395;28;20235;-71
2023/04/17 02:42:00;;;;;;;4.70;4.20;;;;;;;12.66;63.13;98288.78;8282422;28;20231;-71
2023/04/17 02:46:04;;;;;;;4.90;4.50;;;;;;;12.61;62.84;98291.59;8282338;28;20227;-71
2023/04/17 02:50:08;;;;;;;4.33;4.03;;;;;;;12.70;62.85;98290.34;8282075;28;20250;-71
2023/04/17 02:54:11;;;;;;;4.30;4.00;;;;;;;12.57;63.07;98290.06;8282084;28;20546;-71
2023/04/17 02:58:14;;;;;;;4.53;4.20;;;;;;;12.81;62.35;98295.00;8281957;28;20486;-71
2023/04/17 03:02:20;;;;;;;4.70;4.30;;;;;;;12.74;62.50;98291.88;8281610;28;20555;-71
2023/04/17 03:06:23;;;;;;;4.60;4.30;;;;;;;12.65;63.00;98285.34;8281364;28;20307;-71
2023/04/17 03:10:26;;;;;;;5.30;4.50;;;;;;;12.61;62.93;98280.38;8281539;28;20239;-71
2023/04/17 03:14:29;;;;;;;5.13;4.73;;;;;;;12.70;62.95;98292.94;8281208;28;20238;-71
2023/04/17 03:18:35;;;;;;;4.50;4.20;;;;;;;12.53;63.56;98301.53;8281583;28;20259;-71
2023/04/17 03:22:38;;;;;;;4.77;4.37;;;;;;;12.69;62.95;98299.03;8281183;28;20254;-71
2023/04/17 03:26:41;;;;;;;4.43;4.13;;;;;;;12.56;63.33;98292.75;8281263;28;20271;-71
2023/04/17 03:30:44;;;;;;;4.63;4.20;;;;;;;12.64;62.87;98294.06;8280953;28;20230;-71
2023/04/17 03:34:48;;;;;;;4.43;4.13;;;;;;;12.58;62.82;98302.13;8281281;28;20231;-71
2023/04/17 03:38:51;;;;;;;4.20;3.90;;;;;;;12.71;62.61;98302.41;8280935;28;20227;-71
2023/04/17 03:42:53;;;;;;;4.57;4.27;;;;;;;12.60;62.71;98297.72;8281058;28;20282;-71
2023/04/17 03:46:56;;;;;;;4.30;4.00;;;;;;;12.63;63.10;98310.56;8281422;28;20223;-70
2023/04/17 03:51:01;;;;;;;4.40;4.00;;;;;;;12.72;62.70;98304.09;8280641;28;20317;-70
2023/04/17 03:55:04;;;;;;;4.63;4.23;;;;;;;12.63;63.17;98309.72;8281129;28;20556;-70
2023/04/17 03:59:07;;;;;;;4.53;4.23;;;;;;;12.74;62.45;98311.81;8280928;28;20437;-71
2023/04/17 04:03:10;;;;;;;4.90;4.50;;;;;;;12.64;62.84;98308.81;8280795;28;20515;-71
2023/04/17 04:07:14;;;;;;;7.30;6.70;;;;;;;12.65;62.99;98310.50;8280507;28;20405;-71
2023/04/17 04:11:17;;;;;;;4.97;4.67;;;;;;;12.65;62.76;98313.09;8280651;28;20526;-71
2023/04/17 04:15:20;;;;;;;4.50;4.10;;;;;;;12.68;63.09;98313.78;8280051;28;20234;-71
2023/04/17 04:19:23;;;;;;;4.73;4.43;;;;;;;12.67;62.55;98313.88;8280463;28;20429;-71
2023/04/17 04:23:29;;;;;;;4.93;4.47;;;;;;;12.41;62.68;98284.75;8280041;28;20228;-71
2023/04/17 04:27:32;;;;;;;5.10;4.70;;;;;;;12.62;62.91;98321.88;8284224;28;20228;-71
2023/04/17 04:31:36;;;;;;;5.10;4.70;;;;;;;12.63;62.99;98326.16;8286435;28;20239;-72
2023/04/17 04:35:40;;;;;;;5.20;4.80;;;;;;;12.60;63.30;98321.09;8286383;28;20227;-71
2023/04/17 04:39:52;;;;;;;4.70;4.40;;;;;;;12.69;62.95;98323.25;8285548;28;20231;-71
2023/04/17 04:43:55;;;;;;;5.10;4.73;;;;;;;12.68;62.84;98331.97;8285859;28;20527;-70
2023/04/17 04:47:58;;;;;;;4.80;4.40;;;;;;;12.60;62.46;98313.28;8286008;28;20232;-70
2023/04/17 04:52:01;;;;;;;4.50;4.20;;;;;;;12.70;62.59;98337.94;8285787;28;20235;-71
2023/04/17 04:56:06;;;;;;;5.17;4.77;;;;;;;12.61;63.02;98329.75;8285465;28;20534;-71
2023/04/17 05:00:10;;;;;;;4.87;4.43;;;;;;;12.70;62.79;98339.72;8285162;28;20530;-71
2023/04/17 05:04:12;;;;;;;5.50;5.10;;;;;;;12.55;62.90;98336.06;8284560;28;20236;-72
2023/04/17 05:08:16;;;;;;;4.93;4.23;;;;;;;12.54;63.06;98323.97;8285101;28;20469;-72
2023/04/17 05:12:20;;;;;;;5.70;5.30;;;;;;;12.66;63.04;98352.00;8284664;28;20242;-73
2023/04/17 05:16:23;;;;;;;5.87;4.80;;;;;;;12.49;63.08;98337.19;8284316;28;20545;-72
2023/04/17 05:20:26;;;;;;;6.67;4.90;;;;;;;12.72;63.00;98356.06;8284998;28;20278;-72
2023/04/17 05:24:29;;;;;;;5.83;5.33;;;;;;;12.73;63.01;98357.75;8284681;28;20240;-73
2023/04/17 05:28:34;;;;;;;5.17;4.77;;;;;;;12.77;62.85;98356.69;8285144;28;20232;-69
2023/04/17 05:32:37;;;;;;;5.67;5.27;;;;;;;12.69;63.35;98356.19;8284657;28;20239;-71
2023/04/17 05:36:40;;;;;;;5.87;5.40;;;;;;;12.77;63.00;98361.03;8284411;28;20223;-71
2023/04/17 05:40:43;;;;;;;5.50;5.10;;;;;;;12.69;63.38;98357.03;8284207;28;20246;-73
2023/04/17 05:44:47;;;;;;;5.70;5.20;;;;;;;12.71;63.24;98357.81;8284833;28;20227;-73
2023/04/17 05:48:50;;;;;;;5.50;5.03;;;;;;;12.79;62.67;98360.03;8284759;28;20227;-73
2023/04/17 05:52:53;;;;;;;5.93;5.43;;;;;;;12.57;63.37;98359.38;8284698;28;20374;-73
2023/04/17 05:56:56;;;;;;;6.03;5.63;;;;;;;12.73;63.24;98359.50;8284528;28;20462;-73
2023/04/17 06:01:01;;;;;;;6.13;5.63;;;;;;;12.63;62.13;98339.16;8284370;28;20235;-73
2023/04/17 06:05:05;;;;;;;6.37;5.83;;;;;;;12.89;62.09;98365.69;8284054;28;20531;-73
2023/04/17 06:09:09;;;;;;;6.57;5.97;;;;;;;12.94;62.39;98373.25;8283855;28;20227;-73
2023/04/17 06:13:13;;;;;;;6.00;5.50;;;;;;;12.83;62.73;98369.41;8283997;28;20227;-73
2023/04/17 06:17:17;;;;;;;6.07;5.57;;;;;;;12.94;62.54;98376.69;8283613;28;20231;-73
2023/04/17 06:21:21;;;;;;;6.70;6.10;;;;;;;12.87;62.61;98376.16;8283039;28;20236;-73
2023/04/17 06:25:24;;;;;;;6.80;6.20;;;;;;;12.84;62.79;98384.06;8283204;28;20238;-73
2023/04/17 06:29:26;;;;;;;6.07;5.50;;;;;;;12.76;62.69;98369.78;8283487;28;20526;-73
2023/04/17 06:33:31;;;;;;;6.37;5.73;;;;;;;12.57;63.81;98387.97;8283200;28;20461;-73
2023/04/17 06:37:34;;;;;;;6.63;5.90;;;;;;;12.62;62.91;98371.25;8283082;28;20227;-73
2023/04/17 06:41:36;;;;;;;5.70;5.20;;;;;;;12.86;62.74;98387.44;8283023;28;20550;-73
2023/04/17 06:45:41;;;;;;;5.93;5.43;;;;;;;12.82;62.51;98387.66;8282874;28;20232;-73
2023/04/17 06:49:45;;;;;;;5.83;5.33;;;;;;;12.73;62.72;98388.09;8282153;28;20229;-73
2023/04/17 06:53:48;;;;;;;6.73;6.03;;;;;;;12.60;62.33;98338.44;8282620;28;20538;-73
2023/04/17 06:57:51;;;;;;;6.90;6.20;;;;;;;12.79;62.13;98374.81;8282665;28;20250;-73
2023/04/17 07:01:53;;;;;;;6.97;6.33;;;;;;;12.96;62.03;98392.22;8282519;28;20487;-73
2023/04/17 07:05:58;;;;;;;6.13;5.63;;;;;;;13.09;62.04;98393.31;8282095;28;20231;-73
2023/04/17 07:10:00;;;;;;;5.97;5.47;;;;;;;13.08;61.80;98395.09;8282185;28;20226;-71
2023/04/17 07:14:03;;;;;;;5.70;5.10;;;;;;;13.30;60.91;98405.31;8282102;28;20247;-71
2023/04/17 07:18:06;;;;;;;4.90;4.60;;;;;;;13.28;61.00;98409.72;8282058;28;20236;-72
2023/04/17 07:22:12;;;;;;;5.97;5.47;;;;;;;13.30;60.85;98379.28;8281612;28;20235;-72
2023/04/17 07:26:15;;;;;;;5.53;5.13;;;;;;;13.35;61.17;98394.69;8282002;28;20455;-72
2023/04/17 07:30:19;;;;;;;6.43;5.60;;;;;;;13.40;60.62;98408.31;8281552;28;20248;-72
2023/04/17 07:34:24;;;;;;;6.07;5.57;;;;;;;13.37;60.67;98416.28;8281711;28;20418;-72
2023/04/17 07:38:28;;;;;;;6.73;6.13;;;;;;;13.17;61.11;98416.34;8281520;28;20231;-72
2023/04/17 07:42:31;;;;;;;6.83;5.83;;;;;;;13.45;60.56;98421.09;8281332;28;20546;-72
2023/04/17 07:46:36;;;;;;;5.93;5.43;;;;;;;13.47;60.14;98417.50;8281163;28;20241;-72
2023/04/17 07:50:39;;;;;;;6.23;5.73;;;;;;;13.65;59.67;98422.69;8281129;28;20232;-72
2023/04/17 07:54:43;;;;;;;2.80;2.57;;;;;;;16.03;70.80;98416.84;8281141;28;20233;-70
2023/04/17 07:58:46;;;;;;;5.00;4.50;;;;;;;16.23;56.23;98407.78;8281335;28;20226;-69
2023/04/17 08:02:51;;;;;;;4.00;3.70;;;;;;;16.68;58.20;98413.75;8287360;28;20233;-70
2023/04/17 08:06:54;;;;;;;4.13;3.77;;;;;;;16.94;54.25;98406.88;8287906;28;20536;-71
2023/04/17 08:10:59;;;;;;;5.67;5.20;;;;;;;16.04;52.31;98428.94;8287425;28;20420;-73
2023/04/17 08:15:02;;;;;;;6.57;6.07;;;;;;;15.45;53.66;98431.44;8287414;28;20226;-73
2023/04/17 08:19:05;;;;;;;5.80;5.30;;;;;;;14.97;55.25;98417.63;8287476;28;20277;-73
2023/04/17 08:23:07;;;;;;;6.00;5.60;;;;;;;14.87;54.41;98440.75;8287138;28;20237;-72
2023/04/17 08:27:12;;;;;;;6.00;5.53;;;;;;;14.68;54.49;98440.91;8287701;28;20521;-73
2023/04/17 08:31:15;;;;;;;6.53;5.33;;;;;;;14.68;55.36;98450.47;8287153;28;20232;-72
2023/04/17 08:35:18;;;;;;;6.20;5.60;;;;;;;14.68;55.09;98438.31;8286777;28;20228;-73
2023/04/17 08:39:21;;;;;;;6.10;5.60;;;;;;;14.41;55.49;98438.81;8287042;28;20403;-73
2023/04/17 08:43:28;;;;;;;5.43;5.03;;;;;;;15.04;54.59;98442.41;8286716;28;20244;-73
2023/04/17 08:47:34;;;;;;;4.83;4.47;;;;;;;14.75;53.61;98430.97;8286798;28;20420;-73
2023/04/17 08:51:37;;;;;;;4.30;4.00;;;;;;;14.70;54.50;98446.88;8286626;28;20243;-73
2023/04/17 08:55:40;;;;;;;4.50;4.20;;;;;;;14.37;54.74;98408.59;8286522;28;20234;-73
2023/04/17 08:59:45;;;;;;;4.73;4.37;;;;;;;14.52;53.81;98438.22;8286608;28;20284;-73
2023/04/17 09:03:50;;;;;;;6.30;5.80;;;;;;;14.45;54.65;98450.75;8286329;28;20434;-72
2023/04/17 09:08:07;;;;;;;4.87;4.57;;;;;;;14.47;54.22;98448.91;8286686;28;20227;-73
2023/04/17 09:12:10;;;;;;;4.70;4.40;;;;;;;14.38;54.19;98444.16;8284804;28;20242;-73
2023/04/17 09:16:15;;;;;;;6.57;5.97;;;;;;;14.32;54.11;98456.66;8285651;28;20223;-73
2023/04/17 09:20:18;;;;;;;6.67;6.07;;;;;;;14.26;54.71;98456.06;8285160;28;20232;-74
2023/04/17 09:24:32;;;;;;;7.27;5.47;;;;;;;14.28;54.59;98458.59;8285444;28;20346;-73
2023/04/17 09:28:38;;;;;;;6.83;6.23;;;;;;;14.26;54.69;98453.47;8285522;28;20236;-73
2023/04/17 09:32:42;;;;;;;5.63;5.00;;;;;;;14.31;54.14;98450.63;8285484;28;20230;-73
2023/04/17 09:36:45;;;;;;;5.07;4.50;;;;;;;14.42;54.40;98445.69;8284784;28;20227;-73
2023/04/17 09:40:48;;;;;;;5.27;4.80;;;;;;;14.60;54.04;98451.75;8284442;28;20229;-73
2023/04/17 09:44:50;;;;;;;4.80;4.50;;;;;;;14.71;53.83;98455.53;8285106;28;20242;-73
2023/04/17 09:48:57;;;;;;;6.23;5.73;;;;;;;14.89;53.27;98453.69;8284843;28;20235;-73
2023/04/17 09:53:02;;;;;;;4.67;4.37;;;;;;;14.75;52.83;98452.66;8284550;28;20452;-72
2023/04/17 09:57:07;;;;;;;4.90;4.60;;;;;;;14.59;53.29;98455.25;8284624;28;20242;-71
2023/04/17 10:01:11;;;;;;;5.30;4.63;;;;;;;14.83;53.33;98460.06;8285028;28;20227;-72
2023/04/17 10:05:16;;;;;;;5.53;5.13;;;;;;;14.62;53.70;98452.50;8284385;28;20241;-71
2023/04/17 10:09:19;;;;;;;5.00;4.60;;;;;;;15.09;53.05;98452.63;8284138;28;20250;-73
2023/04/17 10:13:26;;;;;;;4.60;4.30;;;;;;;15.21;52.21;98450.19;8284208;28;20242;-73
2023/04/17 10:17:30;;;;;;;4.57;4.17;;;;;;;15.27;51.35;98453.34;8284736;28;20231;-72
2023/04/17 10:21:35;;;;;;;3.93;3.63;;;;;;;15.07;51.29;98428.38;8283882;28;20281;-72
2023/04/17 10:25:37;;;;;;;4.20;3.90;;;;;;;15.27;51.80;98440.31;8282791;28;20407;-70
2023/04/17 10:29:53;;;;;;;3.80;3.50;;;;;;;15.14;51.73;98445.38;8284530;28;20438;-72
2023/04/17 10:33:56;;;;;;;3.80;3.50;;;;;;;14.96;52.32;98442.00;8283188;28;20234;-72
2023/04/17 10:38:05;;;;;;;3.23;2.93;;;;;;;14.99;51.78;98442.69;8283588;28;20232;-72
2023/04/17 10:42:08;;;;;;;2.80;2.60;;;;;;;15.06;51.72;98440.59;8283622;28;20235;-73
2023/04/17 10:46:13;;;;;;;3.43;3.17;;;;;;;15.04;52.39;98437.22;8283344;28;20234;-71
2023/04/17 10:50:16;;;;;;;3.13;2.93;;;;;;;15.26;50.97;98439.47;8283115;28;20224;-70
2023/04/17 10:54:20;;;;;;;2.80;2.60;;;;;;;15.41;51.30;98440.38;8282649;28;20235;-71
2023/04/17 10:58:23;;;;;;;3.07;2.77;;;;;;;14.98;50.71;98416.69;8282863;28;20238;-71
2023/04/17 11:02:34;;;;;;;3.20;3.00;;;;;;;14.94;52.05;98431.66;8282335;28;20297;-71
2023/04/17 11:06:38;;;;;;;2.73;2.53;;;;;;;14.61;51.60;98422.13;8282391;28;20235;-71
2023/04/17 11:10:43;;;;;;;3.00;2.80;;;;;;;14.71;52.35;98434.69;8282533;28;20230;-70
2023/04/17 11:14:46;;;;;;;2.70;2.50;;;;;;;14.84;52.39;98425.28;8282180;28;20223;-70
2023/04/17 11:18:50;;;;;;;3.00;2.80;;;;;;;15.11;52.04;98432.50;8282535;28;20315;-70
2023/04/17 11:22:53;;;;;;;2.90;2.70;;;;;;;15.10;52.08;98422.97;8282149;28;20250;-71
2023/04/17 11:26:59;;;;;;;24.23;12.63;;;;;;;15.64;50.99;98420.81;8282088;28;20219;-70
2023/04/17 11:31:03;;;;;;;3.23;2.93;;;;;;;15.40;50.44;98404.78;8281775;28;20540;-70
2023/04/17 11:35:06;;;;;;;3.40;3.13;;;;;;;15.91;50.43;98428.00;8281615;28;20228;-70
2023/04/17 11:39:09;;;;;;;2.17;2.07;;;;;;;16.18;48.76;98425.50;8281965;28;20230;-70
2023/04/17 11:43:14;;;;;;;2.50;1.80;;;;;;;16.08;49.08;98427.81;8281488;28;20231;-70
2023/04/17 11:47:19;;;;;;;1.70;1.60;;;;;;;15.97;48.91;98425.00;8281658;28;20232;-70
2023/04/17 11:51:22;;;;;;;1.77;1.67;;;;;;;16.03;49.76;98427.28;8280941;28;20409;-70
2023/04/17 11:55:29;;;;;;;1.50;1.40;;;;;;;15.94;49.58;98426.03;8281489;28;20409;-70
2023/04/17 11:59:36;;;;;;;2.70;2.60;;;;;;;15.80;49.74;98431.22;8281929;28;20236;-70
2023/04/17 12:03:39;;;;;;;3.20;3.00;;;;;;;15.91;48.82;98428.81;8281580;28;20443;-70
2023/04/17 12:07:46;;;;;;;2.10;1.80;;;;;;;16.08;48.91;98427.81;8281382;28;20228;-70
2023/04/17 12:11:49;;;;;;;1.43;1.40;;;;;;;16.01;49.97;98416.06;8281478;28;20252;-71
2023/04/17 12:15:53;;;;;;;1.87;1.27;;;;;;;15.21;51.22;98415.41;8281481;28;20224;-70
2023/04/17 12:20:02;;;;;;;1.10;1.10;;;;;;;15.36;50.52;98424.97;8281539;28;20238;-70
2023/04/17 12:24:07;;;;;;;1.33;1.33;;;;;;;15.72;50.22;98428.19;8281512;28;20242;-70
2023/04/17 12:28:10;;;;;;;2.50;1.40;;;;;;;15.54;50.26;98430.09;8281253;28;20227;-70
2023/04/17 12:32:15;;;;;;;2.70;2.50;;;;;;;15.24;50.47;98417.84;8281457;28;20229;-69
2023/04/17 12:36:18;;;;;;;1.17;1.17;;;;;;;15.52;50.96;98427.56;8281138;28;20224;-71
2023/04/17 12:40:23;;;;;;;1.53;1.43;;;;;;;15.60;49.96;98427.13;8281656;28;20236;-70
2023/04/17 12:44:26;;;;;;;2.00;1.90;;;;;;;15.35;51.04;98427.69;8280745;28;20304;-71
2023/04/17 12:48:34;;;;;;;1.80;1.70;;;;;;;15.71;49.42;98429.13;8284625;28;20260;-69
2023/04/17 12:52:36;;;;;;;3.07;1.40;;;;;;;15.75;49.95;98428.88;8287115;28;20233;-70
2023/04/17 12:56:39;;;;;;;2.27;2.17;;;;;;;16.15;48.98;98425.69;8286765;28;20234;-70
2023/04/17 13:00:43;;;;;;;2.03;1.60;;;;;;;16.09;48.41;98408.63;8286429;28;20223;-70
2023/04/17 13:04:48;;;;;;;1.63;1.53;;;;;;;15.91;47.57;98425.38;8286139;28;20536;-71
2023/04/17 13:08:54;;;;;;;1.80;1.70;;;;;;;16.00;48.14;98422.22;8285919;28;20233;-69
2023/04/17 13:12:57;;;;;;;2.30;2.10;;;;;;;15.86;48.60;98424.78;8286038;28;20425;-69
2023/04/17 13:17:00;;;;;;;3.03;2.77;;;;;;;16.10;48.08;98432.97;8285756;28;20252;-69
2023/04/17 13:21:04;;;;;;;2.00;1.80;;;;;;;16.05;48.77;98424.56;8285974;28;20235;-70
2023/04/17 13:25:08;;;;;;;1.53;1.23;;;;;;;16.04;48.54;98418.50;8285441;28;20560;-69
2023/04/17 13:29:11;;;;;;;1.17;1.17;;;;;;;16.57;47.62;98419.63;8285067;28;20226;-69
2023/04/17 13:33:15;;;;;;;1.10;1.10;;;;;;;16.26;48.44;98415.44;8285162;28;20349;-70
2023/04/17 13:37:19;;;;;;;1.80;1.00;;;;;;;16.07;47.98;98405.25;8284459;28;20226;-70
2023/04/17 13:41:22;;;;;;;0.70;0.70;;;;;;;16.01;47.21;98414.31;8285081;28;20235;-68
2023/04/17 13:45:25;;;;;;;0.80;0.80;;;;;;;16.35;47.92;98417.47;8284661;28;20244;-69
2023/04/17 13:49:28;;;;;;;0.80;0.80;;;;;;;16.02;47.26;98404.69;8284481;28;20241;-69
2023/04/17 13:53:33;;;;;;;0.60;0.60;;;;;;;16.06;46.87;98416.63;8284483;28;20469;-69
2023/04/17 13:57:35;;;;;;;0.60;0.60;;;;;;;16.20;46.83;98414.03;8284496;28;20234;-69
2023/04/17 14:01:38;;;;;;;0.80;0.80;;;;;;;16.03;47.04;98415.06;8284431;28;20233;-69
2023/04/17 14:05:41;;;;;;;1.47;0.70;;;;;;;16.26;47.96;98405.00;8284548;28;20244;-69
2023/04/17 14:09:45;;;;;;;0.80;0.80;;;;;;;16.68;47.00;98411.13;8284045;28;20237;-69
2023/04/17 14:13:48;;;;;;;0.77;0.70;;;;;;;16.47;46.60;98409.81;8283961;28;20226;-71
2023/04/17 14:17:51;;;;;;;1.03;0.53;;;;;;;16.31;46.48;98407.31;8284098;28;20515;-70
2023/04/17 14:21:54;;;;;;;1.33;0.60;;;;;;;16.12;47.11;98399.75;8284127;28;20238;-70
2023/04/17 14:26:00;;;;;;;1.13;0.80;;;;;;;15.98;47.38;98398.81;8283739;28;20234;-69
2023/04/17 14:30:03;;;;;;;0.70;0.60;;;;;;;15.78;48.24;98397.38;8282247;28;20238;-70
2023/04/17 14:34:07;;;;;;;0.80;0.80;;;;;;;15.42;47.95;98345.50;8283512;28;20289;-70
2023/04/17 14:38:10;;;;;;;1.00;1.00;;;;;;;15.91;47.53;98400.09;8283510;28;20552;-70
2023/04/17 14:42:14;;;;;;;1.50;1.40;;;;;;;15.11;49.11;98393.38;8281668;28;20554;-69
2023/04/17 14:46:17;;;;;;;1.10;1.10;;;;;;;14.78;49.56;98316.94;8282741;28;20231;-69
2023/04/17 14:50:19;;;;;;;1.30;1.20;;;;;;;15.07;48.95;98363.19;8282289;28;20522;-69
2023/04/17 14:54:25;;;;;;;1.00;1.00;;;;;;;15.21;48.87;98402.34;8282887;28;20239;-70
2023/04/17 14:58:34;;;;;;;1.00;1.00;;;;;;;15.18;49.61;98402.56;8283063;28;20227;-69
2023/04/17 15:02:37;;;;;;;1.10;1.10;;;;;;;15.12;49.02;98377.66;8282683;28;20241;-70
2023/04/17 15:06:41;;;;;;;1.40;1.30;;;;;;;14.91;50.46;98408.38;8282974;28;20622;-69
2023/04/17 15:10:44;;;;;;;1.13;1.03;;;;;;;14.76;49.19;98367.50;8282070;28;20223;-70
2023/04/17 15:14:55;;;;;;;2.37;1.20;;;;;;;14.86;50.32;98308.69;8282148;28;20342;-69
2023/04/17 15:18:57;;;;;;;1.70;1.60;;;;;;;15.05;49.71;98410.22;8282206;28;20223;-70
2023/04/17 15:23:00;;;;;;;2.23;2.13;;;;;;;14.98;50.52;98414.06;8282332;28;20231;-69
2023/04/17 15:27:05;;;;;;;2.50;2.40;;;;;;;14.74;50.88;98414.50;8282153;28;20437;-69
2023/04/17 15:31:09;;;;;;;3.00;2.63;;;;;;;14.66;50.83;98417.53;8282168;28;20231;-70
2023/04/17 15:35:12;;;;;;;2.50;2.30;;;;;;;14.65;50.82;98425.44;8282093;28;20231;-70
2023/04/17 15:39:16;;;;;;;2.97;2.77;;;;;;;14.56;50.88;98418.06;8282090;28;20230;-70
2023/04/17 15:43:19;;;;;;;3.07;2.87;;;;;;;14.62;50.86;98404.72;8281509;28;20239;-69
2023/04/17 15:47:23;;;;;;;3.00;2.80;;;;;;;14.34;51.54;98411.38;8281585;28;20234;-69
2023/04/17 15:51:27;;;;;;;3.07;2.87;;;;;;;14.02;52.17;98431.28;8281601;28;20235;-69
2023/04/17 15:55:31;;;;;;;2.73;2.60;;;;;;;14.07;52.01;98421.50;8281533;28;20436;-68
2023/04/17 15:59:34;;;;;;;3.27;2.97;;;;;;;14.02;51.97;98426.91;8281034;28;20245;-69
2023/04/17 16:03:39;;;;;;;3.60;3.40;;;;;;;14.19;52.22;98420.00;8281663;28;20239;-69
2023/04/17 16:07:42;;;;;;;3.40;3.20;;;;;;;14.13;52.35;98430.75;8281118;28;20241;-70
2023/04/17 16:11:46;;;;;;;3.97;3.67;;;;;;;14.24;52.10;98411.03;8281167;28;20238;-69
2023/04/17 16:15:50;;;;;;;3.60;3.30;;;;;;;14.04;51.42;98387.78;8280778;28;20223;-69
2023/04/17 16:19:54;;;;;;;3.40;3.10;;;;;;;14.40;51.75;98413.66;8280995;28;20234;-69
2023/04/17 16:23:58;;;;;;;4.27;3.87;;;;;;;14.12;51.93;98426.44;8287384;28;20231;-69
2023/04/17 16:28:02;;;;;;;6.30;5.80;;;;;;;13.75;51.96;98389.28;8287193;28;20238;-69
2023/04/17 16:32:04;;;;;;;7.40;6.70;;;;;;;13.65;53.61;98431.38;8287008;28;20531;-69
2023/04/17 16:36:09;;;;;;;6.93;6.43;;;;;;;14.00;52.46;98433.13;8287092;28;20229;-69
2023/04/17 16:40:16;;;;;;;7.23;6.63;;;;;;;13.87;53.34;98425.94;8286814;28;20230;-69
2023/04/17 16:44:19;;;;;;;8.83;6.97;;;;;;;13.18;53.23;98351.28;8286252;28;20252;-69
2023/04/17 16:48:22;;;;;;;6.30;5.70;;;;;;;14.05;54.50;98429.38;8286413;28;20507;-69
2023/04/17 16:52:26;;;;;;;6.57;6.00;;;;;;;13.76;53.65;98438.63;8286365;28;20237;-69
2023/04/17 16:56:29;;;;;;;6.63;6.13;;;;;;;13.67;53.37;98439.13;8286118;28;20231;-68
2023/04/17 17:00:32;;;;;;;6.67;6.17;;;;;;;13.64;53.59;98437.47;8286441;28;20238;-69
2023/04/17 17:04:35;;;;;;;6.93;6.33;;;;;;;13.56;53.73;98439.63;8284990;28;20245;-69
2023/04/17 17:08:43;;;;;;;8.07;7.37;;;;;;;13.70;53.39;98449.34;8286098;28;20225;-68
2023/04/17 17:12:46;;;;;;;10.50;9.60;;;;;;;13.30;53.78;98425.28;8285948;28;20225;-69
2023/04/17 17:16:48;;;;;;;9.87;9.00;;;;;;;13.65;53.71;98459.13;8285709;28;20230;-68
2023/04/17 17:20:54;;;;;;;12.17;10.97;;;;;;;13.52;53.77;98445.03;8285592;28;20548;-68
2023/04/17 17:24:59;;;;;;;13.00;11.73;;;;;;;13.47;53.87;98453.09;8285144;28;20239;-69
2023/04/17 17:29:02;;;;;;;12.40;11.30;;;;;;;13.55;53.87;98450.94;8285362;28;20234;-69
2023/04/17 17:33:04;;;;;;;11.83;10.83;;;;;;;13.50;54.16;98458.16;8284379;28;20443;-72
2023/04/17 17:37:07;;;;;;;12.23;11.03;;;;;;;13.45;53.74;98450.56;8285251;28;20337;-72
2023/04/17 17:41:11;;;;;;;12.87;10.90;;;;;;;13.26;53.90;98458.34;8285094;28;20229;-73
2023/04/17 17:45:17;;;;;;;12.53;11.33;;;;;;;12.95;53.96;98451.16;8267639;28;20234;-74
2023/04/17 17:49:20;;;;;;;12.53;11.30;;;;;;;12.99;54.17;98454.47;8285108;28;20568;-75
2023/04/17 17:53:24;;;;;;;11.03;7.90;;;;;;;13.68;70.21;98443.38;8284215;28;20405;-73
2023/04/17 17:57:30;;;;;;;10.37;7.87;;;;;;;15.46;68.52;98464.47;8284643;28;20305;-73
2023/04/17 18:01:49;;;;;;;10.00;9.07;;;;;;;15.34;58.75;98465.97;8284600;28;20426;-72
2023/04/17 18:05:52;;;;;;;11.90;10.47;;;;;;;16.05;54.70;98471.56;8283846;28;20235;-72
2023/04/17 18:09:55;;;;;;;9.93;9.03;;;;;;;15.84;51.90;98469.31;8284266;28;20223;-72
2023/04/17 18:14:00;;;;;;;10.77;9.77;;;;;;;16.37;48.61;98467.06;8283851;28;20231;-72
2023/04/17 18:18:03;;;;;;;12.93;11.60;;;;;;;15.29;47.60;98477.59;8284248;28;20389;-73
2023/04/17 18:22:06;;;;;;;13.97;11.70;;;;;;;14.39;49.33;98482.34;8284074;28;20515;-71
2023/04/17 18:26:11;;;;;;;12.33;11.00;;;;;;;14.23;49.58;98486.66;8284059;28;20234;-72
2023/04/17 18:30:18;;;;;;;13.73;12.33;;;;;;;14.10;49.59;98489.03;8283653;28;20250;-72
2023/04/17 18:34:22;;;;;;;13.37;12.07;;;;;;;14.08;50.15;98494.31;8282974;28;20469;-73
2023/04/17 18:38:25;;;;;;;13.03;11.70;;;;;;;13.87;50.53;98498.81;8283611;28;20323;-72
2023/04/17 18:42:28;;;;;;;11.90;10.70;;;;;;;13.58;50.36;98507.22;8283570;28;20242;-72
2023/04/17 18:46:32;;;;;;;12.33;11.10;;;;;;;13.58;50.67;98504.63;8282399;28;20235;-71
2023/04/17 18:50:37;;;;;;;12.43;11.17;;;;;;;13.55;51.13;98513.41;8283379;28;20244;-71
2023/04/17 18:54:40;;;;;;;12.37;11.23;;;;;;;13.36;51.63;98509.97;8283780;28;20493;-73
2023/04/17 18:58:42;;;;;;;13.70;12.40;;;;;;;13.43;51.59;98509.63;8283210;28;20230;-73
2023/04/17 19:02:47;;;;;;;13.37;12.07;;;;;;;13.65;51.29;98513.78;8282353;28;20228;-73
2023/04/17 19:06:50;;;;;;;12.73;11.50;;;;;;;13.49;51.35;98508.50;8282417;28;20241;-73